createdAt,value
2018-09-20T00:09:56.547Z,19.3
2018-09-20T00:19:56.977Z,19.1
2018-09-20T00:40:00.264Z,18.9
2018-09-20T00:50:01.692Z,18.8
2018-09-20T01:10:04.251Z,18.5
2018-09-20T01:20:04.596Z,18.4
2018-09-20T01:30:05.007Z,18.3
2018-09-20T01:40:05.479Z,18.3
2018-09-20T02:00:09.705Z,18.2
2018-09-20T02:20:12.801Z,18.1
2018-09-20T02:30:12.847Z,18
2018-09-20T02:40:12.848Z,18
2018-09-20T02:50:13.540Z,17.9
2018-09-20T03:10:16.559Z,17.9
2018-09-20T03:20:17.520Z,17.8
2018-09-20T03:30:17.928Z,17.8
2018-09-20T03:40:18.082Z,17.8
2018-09-20T04:00:21.377Z,17.7
2018-09-20T04:10:21.676Z,17.6
2018-09-20T04:20:21.846Z,17.6
2018-09-20T04:30:21.758Z,17.5
2018-09-20T04:40:21.960Z,17.4
2018-09-20T04:50:22.059Z,17.4
2018-09-20T05:00:22.137Z,17.4
2018-09-20T05:10:22.656Z,17.3
2018-09-20T05:20:22.939Z,17.4
2018-09-20T05:30:23.638Z,17.4
2018-09-20T05:40:24.085Z,17.7
2018-09-20T05:50:24.739Z,18.1
2018-09-20T06:00:25.112Z,18.5
2018-09-20T06:10:26.670Z,18.9
2018-09-20T06:20:28.101Z,19.3
2018-09-20T06:30:28.537Z,19.3
2018-09-20T06:40:28.827Z,19.5
2018-09-20T06:50:29.910Z,20.4
2018-09-20T07:00:30.790Z,20.9
2018-09-20T07:10:32.637Z,21.6
2018-09-20T07:20:33.311Z,21.5
2018-09-20T07:30:33.864Z,22.1
2018-09-20T07:40:34.149Z,22.2
2018-09-20T07:50:34.517Z,22.6
2018-09-20T08:00:35.104Z,23
2018-09-20T08:10:35.319Z,23.3
2018-09-20T08:20:35.814Z,23.3
2018-09-20T08:30:36.238Z,23.3
2018-09-20T08:40:36.953Z,23.4
2018-09-20T08:50:37.407Z,23.5
2018-09-20T09:00:37.570Z,23.5
2018-09-20T09:10:37.964Z,23.3
2018-09-20T09:30:40.889Z,23.5
2018-09-20T09:40:41.539Z,23.6
2018-09-20T09:50:41.975Z,24
2018-09-20T10:00:42.603Z,24.4
2018-09-20T10:10:43.456Z,24.7
2018-09-20T10:20:44.490Z,24.9
2018-09-20T10:30:44.983Z,24.8
2018-09-20T10:40:45.217Z,24.7
2018-09-20T10:50:45.452Z,24.6
2018-09-20T11:00:46.124Z,24.7
2018-09-20T11:10:46.442Z,24.8
2018-09-20T11:20:46.916Z,25
2018-09-20T11:30:47.516Z,25.2
2018-09-20T11:40:47.719Z,25.4
2018-09-20T11:50:48.595Z,25.7
2018-09-20T12:00:48.832Z,25.7
2018-09-20T12:10:49.411Z,25.7
2018-09-20T12:20:49.985Z,25.9
2018-09-20T12:30:50.351Z,25.8
2018-09-20T12:40:50.676Z,25.7
2018-09-20T12:50:50.758Z,25.6
2018-09-20T13:00:51.248Z,25.5
2018-09-20T13:10:51.653Z,25.5
2018-09-20T13:20:51.902Z,25.4
2018-09-20T13:30:51.994Z,25.3
2018-09-20T13:40:52.407Z,25.3
2018-09-20T13:50:52.902Z,25.2
2018-09-20T14:00:53.463Z,25.3
2018-09-20T14:10:53.963Z,25.2
2018-09-20T14:20:54.269Z,25.1
2018-09-20T14:30:54.753Z,25.2
2018-09-20T14:40:55.097Z,25.2
2018-09-20T14:50:55.624Z,25.1
2018-09-20T15:00:55.924Z,25.1
2018-09-20T15:10:56.218Z,25
2018-09-20T15:20:56.274Z,25
2018-09-20T15:30:56.798Z,25
2018-09-20T15:40:57.241Z,24.9
2018-09-20T15:50:57.713Z,24.9
2018-09-20T16:00:57.952Z,24.8
2018-09-20T16:10:58.160Z,24.7
2018-09-20T16:20:58.575Z,24.7
2018-09-20T16:30:58.797Z,24.6
2018-09-20T16:40:58.839Z,24.5
2018-09-20T16:50:58.996Z,24.4
2018-09-20T17:00:59.405Z,24.3
2018-09-20T17:10:59.518Z,24.1
2018-09-20T17:21:00.175Z,23.9
2018-09-20T17:31:00.692Z,23.7
2018-09-20T17:41:01.016Z,23.5
2018-09-20T17:51:01.200Z,23.3
2018-09-20T18:01:01.463Z,23.2
2018-09-20T18:11:01.751Z,23.1
2018-09-20T18:21:02.010Z,22.9
2018-09-20T18:31:02.182Z,22.7
2018-09-20T18:41:02.367Z,22.6
2018-09-20T18:51:02.335Z,22.3
2018-09-20T19:01:02.787Z,22.1
2018-09-20T19:11:03.124Z,21.8
2018-09-20T19:21:03.282Z,21.4
2018-09-20T19:31:03.584Z,21.1
2018-09-20T19:41:03.676Z,21
2018-09-20T19:51:05.245Z,21
2018-09-20T20:01:05.585Z,21.1
2018-09-20T20:11:06.100Z,21.3
2018-09-20T20:21:09.533Z,21.5
2018-09-20T20:31:09.942Z,21.6
2018-09-20T20:41:10.311Z,21.7
2018-09-20T20:51:10.534Z,21.6
2018-09-20T21:01:11.611Z,21.7
2018-09-20T21:11:13.114Z,21.7
2018-09-20T21:21:15.420Z,21.7
2018-09-20T21:31:16.274Z,21.5
2018-09-20T21:41:16.875Z,21.5
2018-09-20T21:51:17.519Z,21.4
2018-09-20T22:01:17.823Z,21.4
2018-09-20T22:11:18.720Z,21.4
2018-09-20T22:31:22.068Z,21.4
2018-09-20T22:41:22.359Z,21.4
2018-09-20T22:51:22.820Z,21.3
2018-09-20T23:01:23.365Z,21.2
2018-09-20T23:11:23.438Z,21.1
2018-09-20T23:21:23.967Z,21
2018-09-20T23:31:24.268Z,20.9
2018-09-20T23:41:24.690Z,21
2018-09-20T23:51:24.825Z,21
